East Sutton Ridge, Vermont
Current Conditions -  °F | °C
As of 6:55 PM on Wednesday 22 Oct 2014 (Local Time) from KCDA Reporting Station
Overcast Overcast  
Wind Chill: 43°   Ceiling: 7500
Heat Index: 48°   Visibility: 10mi
Dew Point: 39°   Wind: 15mph
Humidity: 70%   Direction: 340°NNW
Pressure: 30.13"   Gusts: 21mph
Location:  44.6632°N, 72.0391°W
Report Text: KCDA 222255Z AUTO 34013G18KT 10SM OVC075 09/04 A3013 RMK AO2 T00910038
Loading
Personal Weather Stations






























Interactive Weather Map
Tropical Storm Tracking
New forecast layout! Learn more

10-Day Weather Forecast

Advertisements
Track Severe Weather on mobile